Time;durP1;ratioP1;P1;durP2;ratioP2;P2;SDS_P1;SDS_P2;PMS_P1;PMS_P2;Temp;Humidity;BMP_temperature;BMP_pressure;BME280_temperature;BME280_humidity;BME280_pressure;Samples;Min_cycle;Max_cycle;Signal;HPM_P1;HPM_P2
2023/11/17 00:02:07;;;;;;;9.02;3.90;;;6.30;99.90;;;;;;4992578;28;20038;-49
2023/11/17 00:04:34;;;;;;;6.65;3.60;;;6.20;99.90;;;;;;4991920;28;20042;-51
2023/11/17 00:07:03;;;;;;;7.50;3.45;;;6.20;99.90;;;;;;4994209;28;20053;-47
2023/11/17 00:09:30;;;;;;;7.35;3.22;;;6.20;99.90;;;;;;4989967;28;20050;-46
2023/11/17 00:11:57;;;;;;;6.63;3.10;;;6.10;99.90;;;;;;4992748;28;20307;-44
2023/11/17 00:14:25;;;;;;;5.85;2.75;;;6.20;99.90;;;;;;4992456;28;20259;-46
2023/11/17 00:16:52;;;;;;;4.57;2.63;;;6.20;99.90;;;;;;4993728;28;20057;-48
2023/11/17 00:19:19;;;;;;;4.15;2.40;;;6.10;99.90;;;;;;4989240;28;20511;-43
2023/11/17 00:21:47;;;;;;;5.55;2.53;;;6.10;99.90;;;;;;4992256;28;20053;-47
2023/11/17 00:24:13;;;;;;;5.97;2.80;;;6.00;99.90;;;;;;4992130;28;20046;-44
2023/11/17 00:26:40;;;;;;;6.13;3.00;;;6.10;99.90;;;;;;4993277;28;20047;-48
2023/11/17 00:29:09;;;;;;;5.57;2.92;;;6.00;99.90;;;;;;4992008;28;20053;-52
2023/11/17 00:31:36;;;;;;;6.95;3.05;;;6.00;99.90;;;;;;4989936;28;20050;-45
2023/11/17 00:34:03;;;;;;;7.20;3.45;;;6.00;99.90;;;;;;4990718;28;20042;-45
2023/11/17 00:36:31;;;;;;;5.72;3.30;;;6.00;99.90;;;;;;4969583;28;20137;-55
2023/11/17 00:39:30;;;;;;;7.30;3.20;;;6.00;99.90;;;;;;4989185;28;20046;-54
2023/11/17 00:41:57;;;;;;;6.57;3.40;;;6.00;99.90;;;;;;4925303;29;20058;-47
2023/11/17 00:44:24;;;;;;;6.22;3.10;;;6.00;99.90;;;;;;4929854;29;20540;-45
2023/11/17 00:46:51;;;;;;;5.15;3.33;;;6.00;99.90;;;;;;4932209;29;20048;-47
2023/11/17 00:49:18;;;;;;;6.90;3.35;;;6.00;99.90;;;;;;4927498;29;20044;-47
2023/11/17 00:51:48;;;;;;;5.20;3.10;;;6.00;99.90;;;;;;4907970;29;20115;-49
2023/11/17 00:54:15;;;;;;;7.63;3.50;;;6.00;99.90;;;;;;4907354;29;20509;-45
2023/11/17 00:56:42;;;;;;;5.68;3.10;;;6.00;99.90;;;;;;4909256;29;20144;-45
2023/11/17 00:59:11;;;;;;;5.57;3.05;;;6.00;99.90;;;;;;4908700;29;20067;-44
2023/11/17 01:01:40;;;;;;;5.93;3.30;;;6.00;99.90;;;;;;4890925;29;20136;-46
2023/11/17 01:04:08;;;;;;;5.07;3.08;;;6.00;99.90;;;;;;4909110;29;20037;-47
2023/11/17 01:06:35;;;;;;;6.30;3.22;;;5.90;99.90;;;;;;4908308;29;20067;-47
2023/11/17 01:09:04;;;;;;;5.53;2.90;;;5.90;99.90;;;;;;4912428;29;20040;-48
2023/11/17 01:11:31;;;;;;;6.70;3.67;;;5.90;99.90;;;;;;4911431;29;20062;-44
2023/11/17 01:13:58;;;;;;;7.50;3.08;;;6.00;99.90;;;;;;4895729;29;20094;-48
2023/11/17 01:16:25;;;;;;;8.68;3.40;;;5.90;99.90;;;;;;4913969;29;20501;-49
2023/11/17 01:18:52;;;;;;;6.38;3.65;;;5.90;99.90;;;;;;4912248;29;20573;-49
2023/11/17 01:21:19;;;;;;;8.88;3.85;;;5.90;99.90;;;;;;4895098;29;20064;-47
2023/11/17 01:23:46;;;;;;;7.22;4.00;;;5.80;99.90;;;;;;4911961;29;20079;-44
2023/11/17 01:26:14;;;;;;;6.43;3.95;;;5.90;99.90;;;;;;4913337;29;20060;-46
2023/11/17 01:28:42;;;;;;;9.48;4.32;;;5.80;99.90;;;;;;4913114;29;20060;-45
2023/11/17 01:31:10;;;;;;;9.13;3.67;;;5.80;99.90;;;;;;4912750;29;20048;-45
2023/11/17 01:33:37;;;;;;;13.85;4.82;;;5.80;99.90;;;;;;4895310;29;20115;-47
2023/11/17 01:36:07;;;;;;;7.03;4.30;;;5.70;99.90;;;;;;4895010;29;20485;-45
2023/11/17 01:38:34;;;;;;;7.25;4.38;;;5.70;99.90;;;;;;4913772;29;20056;-49
2023/11/17 01:41:16;;;;;;;;;;;5.70;99.90;;;;;;4910375;29;20066;-44
2023/11/17 01:43:43;;;;;;;9.38;4.45;;;5.70;99.90;;;;;;4894580;29;19927;-44
2023/11/17 01:46:10;;;;;;;9.10;4.60;;;5.70;99.90;;;;;;4913236;29;20072;-50
2023/11/17 01:48:38;;;;;;;8.77;5.00;;;5.70;99.90;;;;;;4910873;29;20044;-47
2023/11/17 01:51:07;;;;;;;9.07;5.10;;;5.60;99.90;;;;;;4894470;29;20075;-47
2023/11/17 01:53:34;;;;;;;9.38;5.30;;;5.60;99.90;;;;;;4910864;29;20058;-49
2023/11/17 01:56:01;;;;;;;8.80;5.57;;;5.70;99.90;;;;;;4911206;29;20048;-48
2023/11/17 01:58:28;;;;;;;8.23;5.10;;;5.70;99.90;;;;;;4911538;29;20403;-48
2023/11/17 02:00:55;;;;;;;9.85;5.53;;;5.60;99.90;;;;;;4893972;29;20055;-47
2023/11/17 02:03:23;;;;;;;12.32;6.32;;;5.60;99.90;;;;;;4911127;29;20053;-48
2023/11/17 02:06:05;;;;;;;11.70;6.35;;;5.70;99.90;;;;;;4911762;29;20048;-49
2023/11/17 02:08:46;;;;;;;10.45;6.07;;;5.60;99.90;;;;;;4896374;29;20052;-50
2023/11/17 02:11:26;;;;;;;10.95;6.82;;;5.60;99.90;;;;;;4913954;29;20048;-48
2023/11/17 02:14:05;;;;;;;11.63;6.20;;;5.60;99.90;;;;;;4915410;29;20048;-44
2023/11/17 02:16:36;;;;;;;11.85;6.75;;;5.60;99.90;;;;;;4911697;29;20076;-46
2023/11/17 02:19:18;;;;;;;13.88;5.90;;;5.70;99.90;;;;;;4911508;29;20488;-47
2023/11/17 02:21:48;;;;;;;13.93;6.43;;;5.70;99.90;;;;;;4893463;29;20645;-47
2023/11/17 02:24:16;;;;;;;11.07;6.22;;;5.80;99.90;;;;;;4909405;29;20060;-45
2023/11/17 02:27:00;;;;;;;12.05;6.32;;;5.70;99.90;;;;;;4912768;29;20402;-47
2023/11/17 02:29:37;;;;;;;12.27;6.63;;;5.80;99.90;;;;;;4915100;29;20086;-42
2023/11/17 02:32:05;;;;;;;11.38;6.22;;;5.80;99.90;;;;;;4894365;29;20051;-47
2023/11/17 02:34:32;;;;;;;12.80;7.00;;;5.80;99.90;;;;;;4909466;29;20247;-45
2023/11/17 02:37:05;;;;;;;11.90;6.68;;;5.80;99.90;;;;;;4893314;29;20076;-46
2023/11/17 02:39:39;;;;;;;10.52;6.82;;;5.90;99.90;;;;;;4912218;29;20052;-49
2023/11/17 02:42:13;;;;;;;10.98;6.47;;;5.80;99.90;;;;;;4910319;29;20100;-50
2023/11/17 02:44:40;;;;;;;11.68;7.35;;;5.80;99.90;;;;;;4893659;29;20189;-48
2023/11/17 02:47:09;;;;;;;12.80;7.32;;;5.80;99.90;;;;;;4913408;29;20060;-46
2023/11/17 02:49:42;;;;;;;15.30;7.03;;;5.80;99.90;;;;;;4911692;29;20087;-46
2023/11/17 02:52:24;;;;;;;11.82;6.63;;;5.80;99.90;;;;;;4909173;29;20064;-43
2023/11/17 02:54:51;;;;;;;12.77;7.38;;;5.70;99.90;;;;;;4894849;29;20048;-45
2023/11/17 02:57:23;;;;;;;11.02;6.95;;;5.80;99.90;;;;;;4909652;29;20051;-50
2023/11/17 02:59:51;;;;;;;11.10;6.65;;;5.80;99.90;;;;;;4908936;29;20090;-44
2023/11/17 03:02:21;;;;;;;12.60;6.80;;;5.80;99.90;;;;;;4909827;29;20047;-46
2023/11/17 03:04:52;;;;;;;12.32;6.72;;;5.80;99.90;;;;;;4891953;29;20153;-51
2023/11/17 03:07:20;;;;;;;10.68;6.50;;;5.80;99.90;;;;;;4908295;29;20044;-47
2023/11/17 03:09:51;;;;;;;12.43;6.32;;;5.80;99.90;;;;;;4909450;29;20064;-47
2023/11/17 03:12:19;;;;;;;13.35;7.10;;;5.80;99.90;;;;;;4905762;29;20062;-49
2023/11/17 03:14:46;;;;;;;10.57;5.57;;;5.90;99.90;;;;;;4909310;29;20127;-46
2023/11/17 03:17:13;;;;;;;8.27;5.43;;;5.80;99.90;;;;;;4909538;29;20123;-48
2023/11/17 03:19:41;;;;;;;12.15;5.63;;;5.80;99.90;;;;;;4908829;29;20048;-43
2023/11/17 03:22:08;;;;;;;11.00;5.63;;;5.80;99.90;;;;;;4910052;29;20052;-44
2023/11/17 03:24:35;;;;;;;12.05;6.22;;;5.80;99.90;;;;;;4909661;29;20051;-41
2023/11/17 03:27:02;;;;;;;9.88;5.30;;;5.70;99.90;;;;;;4911290;29;20230;-44
2023/11/17 03:29:33;;;;;;;11.30;5.45;;;5.70;99.90;;;;;;4910681;29;20044;-42
2023/11/17 03:32:00;;;;;;;8.38;5.30;;;5.70;99.90;;;;;;4892461;29;20132;-46
2023/11/17 03:34:30;;;;;;;10.63;5.78;;;5.70;99.90;;;;;;4892394;29;20075;-47
2023/11/17 03:37:02;;;;;;;11.05;5.60;;;5.70;99.90;;;;;;4908819;29;20399;-46
2023/11/17 03:39:30;;;;;;;11.30;5.88;;;5.70;99.90;;;;;;4913059;29;20123;-50
2023/11/17 03:42:00;;;;;;;12.60;5.72;;;5.60;99.90;;;;;;4890712;29;20151;-46
2023/11/17 03:44:30;;;;;;;8.82;5.70;;;5.70;99.90;;;;;;4893507;29;20398;-48
2023/11/17 03:46:58;;;;;;;11.93;5.40;;;5.70;99.90;;;;;;4912072;29;20040;-45
2023/11/17 03:49:25;;;;;;;9.32;5.75;;;5.70;99.90;;;;;;4911388;29;20040;-46
2023/11/17 03:51:56;;;;;;;8.30;5.32;;;5.70;99.90;;;;;;4890255;29;20051;-49
2023/11/17 03:54:23;;;;;;;8.73;5.72;;;5.70;99.90;;;;;;4909793;29;20052;-50
2023/11/17 03:56:53;;;;;;;13.25;6.00;;;5.70;99.90;;;;;;4907051;29;20478;-50
2023/11/17 03:59:21;;;;;;;9.88;5.97;;;5.70;99.90;;;;;;4908020;29;20395;-46
2023/11/17 04:01:49;;;;;;;10.23;6.47;;;5.70;99.90;;;;;;4892007;29;20044;-48
2023/11/17 04:04:17;;;;;;;9.52;5.70;;;5.70;99.90;;;;;;4906605;29;20430;-49
2023/11/17 04:06:49;;;;;;;10.68;6.60;;;5.70;99.90;;;;;;4910520;29;20108;-46
2023/11/17 04:09:20;;;;;;;14.15;6.80;;;5.70;99.90;;;;;;4907814;29;20047;-46
2023/11/17 04:11:50;;;;;;;13.13;7.07;;;5.80;99.90;;;;;;4909867;29;20044;-43
2023/11/17 04:14:20;;;;;;;13.48;7.00;;;5.80;99.90;;;;;;4890916;29;20103;-50
2023/11/17 04:16:49;;;;;;;13.02;7.57;;;5.80;99.90;;;;;;4911707;29;20048;-48
2023/11/17 04:19:17;;;;;;;13.65;7.43;;;5.80;99.90;;;;;;4911886;29;20127;-48
2023/11/17 04:21:46;;;;;;;11.88;7.28;;;5.80;99.90;;;;;;4912244;29;20581;-49
2023/11/17 04:24:13;;;;;;;14.85;8.95;;;5.80;99.90;;;;;;4914644;29;20300;-46
2023/11/17 04:26:40;;;;;;;15.40;8.10;;;5.80;99.90;;;;;;4913442;29;20080;-45
2023/11/17 04:29:08;;;;;;;15.98;8.73;;;5.80;99.90;;;;;;4913469;29;20045;-53
2023/11/17 04:31:36;;;;;;;13.23;8.60;;;5.80;99.90;;;;;;4917337;29;20104;-50
2023/11/17 04:34:03;;;;;;;18.60;9.52;;;5.80;99.90;;;;;;4913950;29;20131;-49
2023/11/17 04:36:33;;;;;;;14.50;9.25;;;5.80;99.90;;;;;;4917163;29;20059;-48
2023/11/17 04:39:01;;;;;;;14.80;9.27;;;5.80;99.90;;;;;;4916099;29;20099;-47
2023/11/17 04:41:31;;;;;;;18.92;10.07;;;5.80;99.90;;;;;;4911655;29;20124;-49
2023/11/17 04:43:59;;;;;;;14.90;9.00;;;5.80;99.90;;;;;;4912440;29;20044;-49
2023/11/17 04:46:26;;;;;;;14.10;9.30;;;5.80;99.90;;;;;;4916911;29;20413;-48
2023/11/17 04:48:53;;;;;;;14.18;8.85;;;5.80;99.90;;;;;;4912006;29;20055;-46
2023/11/17 04:51:20;;;;;;;16.15;9.10;;;5.70;99.90;;;;;;4912811;29;20059;-51
2023/11/17 04:53:48;;;;;;;14.07;9.40;;;5.80;99.90;;;;;;4913268;29;20052;-49
2023/11/17 04:56:17;;;;;;;14.70;9.27;;;5.80;99.90;;;;;;4913021;29;20048;-49
2023/11/17 04:58:45;;;;;;;15.77;9.15;;;5.80;99.90;;;;;;4915364;29;20052;-44
2023/11/17 05:01:15;;;;;;;15.15;9.77;;;5.80;99.90;;;;;;4911300;29;20058;-48
2023/11/17 05:03:43;;;;;;;15.98;9.45;;;5.80;99.90;;;;;;4914817;29;20654;-49
2023/11/17 05:06:10;;;;;;;16.58;10.52;;;5.90;99.90;;;;;;4912386;29;20123;-47
2023/11/17 05:08:37;;;;;;;16.40;9.52;;;5.80;99.90;;;;;;4911486;29;20513;-48
2023/11/17 05:11:05;;;;;;;16.77;10.52;;;5.80;99.90;;;;;;4912607;29;20119;-49
2023/11/17 05:13:34;;;;;;;18.52;10.25;;;5.80;99.90;;;;;;4913378;29;20518;-45
2023/11/17 05:16:03;;;;;;;16.95;9.63;;;5.80;99.90;;;;;;4913129;29;20140;-47
2023/11/17 05:18:31;;;;;;;16.25;10.98;;;5.80;99.90;;;;;;4911583;29;20052;-49
2023/11/17 05:20:59;;;;;;;20.63;10.35;;;5.80;99.90;;;;;;4909943;29;20123;-51
2023/11/17 05:23:26;;;;;;;18.73;11.25;;;5.80;99.90;;;;;;4912099;29;20446;-44
2023/11/17 05:25:53;;;;;;;17.17;10.38;;;5.80;99.90;;;;;;4912422;29;20348;-50
2023/11/17 05:28:20;;;;;;;19.45;10.90;;;5.80;99.90;;;;;;4912580;29;20052;-49
2023/11/17 05:30:47;;;;;;;19.95;9.85;;;5.80;99.90;;;;;;4911465;29;20100;-50
2023/11/17 05:33:18;;;;;;;17.30;10.80;;;5.80;99.90;;;;;;4909374;29;20044;-44
2023/11/17 05:35:45;;;;;;;15.88;9.65;;;5.80;99.90;;;;;;4894724;29;20425;-50
2023/11/17 05:38:12;;;;;;;18.38;10.23;;;5.80;99.90;;;;;;4912981;29;20126;-46
2023/11/17 05:40:40;;;;;;;20.35;11.00;;;5.80;99.90;;;;;;4912646;29;20457;-47
2023/11/17 05:43:07;;;;;;;21.08;11.43;;;5.80;99.90;;;;;;4911241;29;20185;-44
2023/11/17 05:45:34;;;;;;;18.25;10.43;;;5.80;99.90;;;;;;4916221;29;20103;-43
2023/11/17 05:48:02;;;;;;;15.95;10.23;;;5.80;99.90;;;;;;4913710;29;20059;-47
2023/11/17 05:50:29;;;;;;;14.43;10.10;;;5.70;99.90;;;;;;4912550;29;20121;-48
2023/11/17 05:52:56;;;;;;;20.45;10.75;;;5.70;99.90;;;;;;4911306;29;20135;-46
2023/11/17 05:55:24;;;;;;;15.77;9.93;;;5.70;99.90;;;;;;4910860;29;20044;-42
2023/11/17 05:57:51;;;;;;;18.83;10.95;;;5.70;99.90;;;;;;4908573;29;20135;-48
2023/11/17 06:00:19;;;;;;;18.92;10.68;;;5.60;99.90;;;;;;4908553;29;20401;-49
2023/11/17 06:02:46;;;;;;;19.27;9.98;;;5.60;99.90;;;;;;4908112;29;20134;-49
2023/11/17 06:05:14;;;;;;;21.20;10.57;;;5.60;99.90;;;;;;4910614;29;20048;-46
2023/11/17 06:07:41;;;;;;;17.98;10.63;;;5.60;99.90;;;;;;4907136;29;20068;-47
2023/11/17 06:10:08;;;;;;;16.27;10.85;;;5.60;99.90;;;;;;4909103;29;20200;-46
2023/11/17 06:12:36;;;;;;;18.77;10.38;;;5.50;99.90;;;;;;4908341;29;20052;-47
2023/11/17 06:15:05;;;;;;;19.52;10.05;;;5.50;99.90;;;;;;4906162;29;20048;-46
2023/11/17 06:17:33;;;;;;;18.45;10.10;;;5.50;99.90;;;;;;4907793;29;20584;-48
2023/11/17 06:20:00;;;;;;;16.08;10.10;;;5.60;99.90;;;;;;4907729;29;20131;-46
2023/11/17 06:22:29;;;;;;;17.85;9.40;;;5.60;99.90;;;;;;4907945;29;20151;-47
2023/11/17 06:24:56;;;;;;;16.10;10.10;;;5.60;99.90;;;;;;4906090;29;20432;-47
2023/11/17 06:27:24;;;;;;;18.70;10.55;;;5.70;99.90;;;;;;4910052;29;20059;-44
2023/11/17 06:29:51;;;;;;;15.13;9.55;;;5.70;99.90;;;;;;4905936;29;20419;-48
2023/11/17 06:32:18;;;;;;;17.25;9.43;;;5.80;99.90;;;;;;4908475;29;20457;-48
2023/11/17 06:34:48;;;;;;;16.38;8.77;;;5.80;99.90;;;;;;4907040;29;20406;-44
2023/11/17 06:37:17;;;;;;;18.08;9.20;;;5.80;99.90;;;;;;4907558;29;20040;-47
2023/11/17 06:39:45;;;;;;;13.70;8.70;;;5.70;99.90;;;;;;4928757;23;20056;-50
2023/11/17 06:42:13;;;;;;;12.73;8.63;;;5.70;99.90;;;;;;4955437;28;20105;-50
2023/11/17 06:44:40;;;;;;;14.65;7.70;;;5.70;99.90;;;;;;4956732;28;20063;-47
2023/11/17 06:47:08;;;;;;;13.00;7.97;;;5.60;99.90;;;;;;4952895;28;20571;-47
2023/11/17 06:49:37;;;;;;;14.60;7.47;;;5.60;99.90;;;;;;4958947;28;20070;-50
2023/11/17 06:52:07;;;;;;;11.88;7.10;;;5.70;99.90;;;;;;4971214;28;20829;-52
2023/11/17 06:54:34;;;;;;;14.25;6.60;;;5.60;99.90;;;;;;4970507;28;20053;-52
2023/11/17 06:57:01;;;;;;;15.15;7.03;;;5.60;99.90;;;;;;4970215;28;20085;-54
2023/11/17 06:59:29;;;;;;;10.73;6.57;;;5.50;99.90;;;;;;4956923;28;20088;-49
2023/11/17 07:01:56;;;;;;;13.82;6.45;;;5.40;99.90;;;;;;4973343;28;20407;-47
2023/11/17 07:04:23;;;;;;;11.75;6.93;;;5.30;99.90;;;;;;4969898;28;20130;-50
2023/11/17 07:06:52;;;;;;;10.85;7.15;;;5.30;99.90;;;;;;4972830;28;20053;-51
2023/11/17 07:09:22;;;;;;;9.98;6.85;;;5.30;99.90;;;;;;4973643;28;20500;-50
2023/11/17 07:11:51;;;;;;;16.27;7.22;;;5.20;99.90;;;;;;4970840;28;20047;-50
2023/11/17 07:14:22;;;;;;;9.90;6.90;;;5.20;99.90;;;;;;4976136;28;20089;-51
2023/11/17 07:16:49;;;;;;;15.13;7.03;;;5.20;99.90;;;;;;4938918;28;20050;-48
2023/11/17 07:19:17;;;;;;;11.65;6.63;;;5.20;99.90;;;;;;4975276;28;20050;-50
2023/11/17 07:21:46;;;;;;;9.48;6.45;;;5.30;99.90;;;;;;4973264;28;20072;-46
2023/11/17 07:24:14;;;;;;;12.60;7.22;;;5.20;99.90;;;;;;4973667;28;20076;-48
2023/11/17 07:26:49;;;;;;;13.80;7.15;;;5.20;99.90;;;;;;4971861;28;20116;-51
2023/11/17 07:29:16;;;;;;;16.83;7.13;;;5.20;99.90;;;;;;4971354;28;20042;-46
2023/11/17 07:31:47;;;;;;;20.17;7.15;;;5.20;99.90;;;;;;4975829;28;20042;-48
2023/11/17 07:34:20;;;;;;;13.35;7.70;;;5.20;99.90;;;;;;4968994;28;20505;-51
2023/11/17 07:36:47;;;;;;;13.63;7.63;;;5.20;99.90;;;;;;4975055;28;20065;-50
2023/11/17 07:39:18;;;;;;;11.32;7.00;;;5.20;99.90;;;;;;4972722;28;20069;-47
2023/11/17 07:41:47;;;;;;;12.50;6.78;;;5.10;99.90;;;;;;4974700;28;20078;-49
2023/11/17 07:44:21;;;;;;;13.73;7.90;;;5.10;99.90;;;;;;4951542;28;20046;-45
2023/11/17 07:46:48;;;;;;;17.83;8.30;;;5.10;99.90;;;;;;4976215;28;20048;-49
2023/11/17 07:49:17;;;;;;;14.00;8.45;;;5.20;99.90;;;;;;4973458;28;20038;-49
2023/11/17 07:51:47;;;;;;;12.77;8.60;;;5.20;99.90;;;;;;4973734;28;20601;-50
2023/11/17 07:54:16;;;;;;;15.00;8.43;;;5.30;99.90;;;;;;4978051;28;20512;-53
2023/11/17 07:56:46;;;;;;;17.15;8.38;;;5.30;99.90;;;;;;4973002;28;20050;-48
2023/11/17 07:59:15;;;;;;;14.02;7.90;;;5.30;99.90;;;;;;4978324;28;20043;-47
2023/11/17 08:01:42;;;;;;;13.10;7.90;;;5.40;99.90;;;;;;4979556;28;20046;-46
2023/11/17 08:04:10;;;;;;;14.85;7.85;;;5.30;99.90;;;;;;4974542;28;20054;-50
2023/11/17 08:06:38;;;;;;;15.77;9.00;;;5.40;99.90;;;;;;4981355;28;20049;-52
2023/11/17 08:09:09;;;;;;;15.27;8.00;;;5.40;99.90;;;;;;4971940;28;20060;-48
2023/11/17 08:11:40;;;;;;;15.77;8.57;;;5.40;99.90;;;;;;4976824;28;20054;-44
2023/11/17 08:14:08;;;;;;;13.07;7.70;;;5.40;99.90;;;;;;4975859;28;20085;-50
2023/11/17 08:16:35;;;;;;;14.98;7.97;;;5.50;99.90;;;;;;4978677;28;20493;-50
2023/11/17 08:19:03;;;;;;;14.20;8.00;;;5.60;99.90;;;;;;4977235;28;20047;-52
2023/11/17 08:21:48;;;;;;;17.83;8.27;;;5.70;99.90;;;;;;4975287;28;20046;-47
2023/11/17 08:24:20;;;;;;;14.95;7.82;;;5.60;99.90;;;;;;4980166;28;20043;-47
2023/11/17 08:26:47;;;;;;;13.53;8.17;;;5.70;99.90;;;;;;4977319;28;20511;-50
2023/11/17 08:29:14;;;;;;;16.52;7.68;;;5.60;99.90;;;;;;4976978;28;20555;-45
2023/11/17 08:31:41;;;;;;;13.82;7.72;;;5.60;99.90;;;;;;4974074;28;20487;-48
2023/11/17 08:34:09;;;;;;;13.15;8.20;;;5.60;99.90;;;;;;4981777;28;20062;-46
2023/11/17 08:36:36;;;;;;;15.15;7.55;;;5.60;99.90;;;;;;4980962;28;20047;-54
2023/11/17 08:39:03;;;;;;;14.85;8.73;;;5.60;99.90;;;;;;4975772;28;20043;-48
2023/11/17 08:41:30;;;;;;;12.55;7.32;;;5.60;99.90;;;;;;4977157;28;20478;-49
2023/11/17 08:43:57;;;;;;;12.77;7.47;;;5.60;99.90;;;;;;4975412;28;20047;-49
2023/11/17 08:46:28;;;;;;;15.23;7.38;;;5.70;99.90;;;;;;4977603;28;20039;-46
2023/11/17 08:48:56;;;;;;;13.77;7.38;;;5.70;99.90;;;;;;4977351;28;20057;-53
2023/11/17 08:51:23;;;;;;;12.77;7.72;;;5.70;99.90;;;;;;4976085;28;20041;-51
2023/11/17 08:53:50;;;;;;;12.57;8.02;;;5.70;99.90;;;;;;4974843;28;20491;-50
2023/11/17 08:56:18;;;;;;;11.20;7.63;;;5.80;99.90;;;;;;4978282;28;20038;-46
2023/11/17 08:58:45;;;;;;;12.40;7.85;;;5.80;99.90;;;;;;4978387;28;20055;-50
2023/11/17 09:01:12;;;;;;;11.05;6.90;;;5.90;99.90;;;;;;4972662;28;20054;-50
2023/11/17 09:03:42;;;;;;;12.50;7.18;;;6.00;99.90;;;;;;4974683;28;20145;-50
2023/11/17 09:06:09;;;;;;;10.77;6.72;;;6.10;99.90;;;;;;4976373;28;20061;-52
2023/11/17 09:08:38;;;;;;;12.60;7.57;;;6.20;99.90;;;;;;4972246;28;20066;-48
2023/11/17 09:11:08;;;;;;;10.25;7.35;;;6.30;99.90;;;;;;4977122;28;20042;-46
2023/11/17 09:13:36;;;;;;;10.90;6.95;;;6.40;99.90;;;;;;4979554;28;20054;-50
2023/11/17 09:16:03;;;;;;;11.15;6.38;;;6.40;99.90;;;;;;4976203;28;20078;-53
2023/11/17 09:18:31;;;;;;;14.18;7.63;;;6.30;99.90;;;;;;4979051;28;20058;-48
2023/11/17 09:20:59;;;;;;;10.27;6.43;;;6.10;99.90;;;;;;4978502;28;20515;-48
2023/11/17 09:23:26;;;;;;;10.00;7.00;;;6.10;99.90;;;;;;4983697;28;20046;-53
2023/11/17 09:25:53;;;;;;;11.32;6.53;;;6.20;99.90;;;;;;4979271;28;20510;-46
2023/11/17 09:28:20;;;;;;;11.43;6.93;;;6.20;99.90;;;;;;4980311;28;20502;-47
2023/11/17 09:30:47;;;;;;;9.90;6.10;;;6.40;99.90;;;;;;4974712;28;20831;-46
2023/11/17 09:33:16;;;;;;;15.60;6.53;;;6.40;99.90;;;;;;4977124;28;20056;-54
2023/11/17 09:35:43;;;;;;;9.25;6.28;;;6.40;99.90;;;;;;4979063;28;20101;-54
2023/11/17 09:38:11;;;;;;;11.82;6.10;;;6.50;99.90;;;;;;4974598;28;20562;-55
2023/11/17 09:40:52;;;;;;;10.77;6.32;;;6.30;99.90;;;;;;4977904;28;20098;-47
2023/11/17 09:43:21;;;;;;;11.05;6.32;;;6.50;99.90;;;;;;4975380;28;20053;-52
2023/11/17 09:45:54;;;;;;;9.75;6.43;;;6.60;99.90;;;;;;4979014;28;20074;-51
2023/11/17 09:48:24;;;;;;;11.73;6.40;;;6.60;99.90;;;;;;4977728;28;20118;-49
2023/11/17 09:50:52;;;;;;;9.50;6.43;;;6.70;99.90;;;;;;4978005;28;20129;-50
2023/11/17 09:53:23;;;;;;;9.65;6.00;;;6.70;99.90;;;;;;4978450;28;20425;-45
2023/11/17 09:55:53;;;;;;;10.00;6.47;;;6.80;99.90;;;;;;4978424;28;20516;-53
2023/11/17 09:58:21;;;;;;;10.13;5.85;;;6.90;99.90;;;;;;4979835;28;20062;-52
2023/11/17 10:00:48;;;;;;;9.05;6.03;;;6.90;99.90;;;;;;4974839;28;20105;-54
2023/11/17 10:03:19;;;;;;;11.70;6.18;;;6.90;99.90;;;;;;4978090;28;20095;-52
2023/11/17 10:05:49;;;;;;;10.45;6.68;;;7.10;99.90;;;;;;4976683;28;20050;-43
2023/11/17 10:08:17;;;;;;;11.35;6.28;;;7.10;99.90;;;;;;4976657;28;20476;-47
2023/11/17 10:10:47;;;;;;;9.02;6.05;;;7.30;99.90;;;;;;4976746;28;20221;-50
2023/11/17 10:13:16;;;;;;;11.18;6.20;;;7.30;99.90;;;;;;4976892;28;20090;-47
2023/11/17 10:15:45;;;;;;;11.52;6.25;;;7.20;99.90;;;;;;4979151;28;20108;-49
2023/11/17 10:18:26;;;;;;;8.70;6.00;;;6.90;99.90;;;;;;4973647;28;20043;-48
2023/11/17 10:20:54;;;;;;;11.68;6.65;;;6.70;99.90;;;;;;4975826;28;20062;-48
2023/11/17 10:23:21;;;;;;;10.60;6.38;;;6.70;99.90;;;;;;4978606;28;20240;-47
2023/11/17 10:25:55;;;;;;;9.73;6.63;;;6.80;99.90;;;;;;4979116;28;20150;-49
2023/11/17 10:28:26;;;;;;;8.13;6.30;;;6.90;99.90;;;;;;4972787;28;20043;-45
2023/11/17 10:31:00;;;;;;;10.82;6.30;;;6.90;99.90;;;;;;4975517;28;20105;-51
2023/11/17 10:33:34;;;;;;;7.85;5.82;;;6.90;99.90;;;;;;4978958;28;20057;-46
2023/11/17 10:36:15;;;;;;;8.95;5.75;;;7.00;99.90;;;;;;4956815;28;20121;-52
2023/11/17 10:38:45;;;;;;;8.02;5.65;;;7.00;99.90;;;;;;4974902;28;20461;-45
2023/11/17 10:41:30;;;;;;;10.02;6.10;;;7.10;99.90;;;;;;4977632;28;20042;-48
2023/11/17 10:43:58;;;;;;;11.40;6.07;;;7.20;99.90;;;;;;4976345;28;20039;-45
2023/11/17 10:46:40;;;;;;;8.85;5.75;;;7.20;99.90;;;;;;4980707;28;20042;-45
2023/11/17 10:49:16;;;;;;;11.02;5.82;;;7.20;99.90;;;;;;4976716;28;20035;-48
2023/11/17 10:51:49;;;;;;;10.57;5.90;;;7.20;99.90;;;;;;4978090;28;20495;-46
2023/11/17 10:54:17;;;;;;;10.68;7.07;;;7.30;99.90;;;;;;4976255;28;20125;-48
2023/11/17 10:56:45;;;;;;;13.40;6.80;;;7.50;99.90;;;;;;4975263;28;20047;-45
2023/11/17 10:59:16;;;;;;;7.55;5.60;;;7.40;99.90;;;;;;4976596;28;20430;-50
2023/11/17 11:01:47;;;;;;;10.80;6.78;;;7.60;99.90;;;;;;4974368;28;20047;-45
2023/11/17 11:04:19;;;;;;;10.20;5.95;;;7.70;99.90;;;;;;4975618;28;20042;-51
2023/11/17 11:06:46;;;;;;;8.05;6.03;;;7.70;99.90;;;;;;4974662;28;20074;-48
2023/11/17 11:09:17;;;;;;;11.05;6.60;;;7.80;99.90;;;;;;4976576;28;20391;-52
2023/11/17 11:11:48;;;;;;;10.38;5.82;;;8.10;99.90;;;;;;4978449;28;20580;-42
2023/11/17 11:14:17;;;;;;;11.50;6.00;;;8.10;99.90;;;;;;4972293;28;20050;-50
2023/11/17 11:16:48;;;;;;;11.90;6.38;;;8.20;99.90;;;;;;4975448;28;20046;-51
2023/11/17 11:19:16;;;;;;;;;;;8.40;99.90;;;;;;4974617;28;20120;-50
2023/11/17 11:22:00;;;;;;;10.35;6.55;;;8.40;99.90;;;;;;4974787;28;19930;-53
2023/11/17 11:24:33;;;;;;;11.02;6.10;;;8.30;99.90;;;;;;4980303;28;20043;-48
2023/11/17 11:27:05;;;;;;;9.48;6.03;;;8.30;99.90;;;;;;4971602;28;20121;-43
2023/11/17 11:29:38;;;;;;;10.50;5.38;;;8.40;99.90;;;;;;4975551;28;20042;-46
2023/11/17 11:32:08;;;;;;;7.40;4.47;;;8.20;99.90;;;;;;4972891;28;20058;-45
2023/11/17 11:34:36;;;;;;;9.95;5.13;;;8.10;99.90;;;;;;4980760;28;20062;-47
2023/11/17 11:37:03;;;;;;;7.88;4.40;;;7.80;99.90;;;;;;4972871;28;20381;-48
2023/11/17 11:39:31;;;;;;;6.78;4.72;;;7.80;99.90;;;;;;4979558;28;20511;-46
2023/11/17 11:42:00;;;;;;;9.68;4.60;;;7.80;99.90;;;;;;4975036;28;20077;-51
2023/11/17 11:44:27;;;;;;;7.45;4.60;;;8.10;99.90;;;;;;4979097;28;20318;-46
2023/11/17 11:46:57;;;;;;;7.18;4.22;;;8.40;99.90;;;;;;4976327;28;20054;-46
2023/11/17 11:49:25;;;;;;;9.88;5.00;;;9.10;99.90;;;;;;4979087;28;20129;-47
2023/11/17 11:51:59;;;;;;;7.70;4.05;;;9.20;99.90;;;;;;4976222;28;20381;-52
2023/11/17 11:54:28;;;;;;;5.97;4.47;;;9.60;99.90;;;;;;4977327;28;20050;-47
2023/11/17 11:56:57;;;;;;;7.40;4.63;;;10.20;99.90;;;;;;4975203;28;20042;-52
2023/11/17 11:59:25;;;;;;;9.32;4.40;;;10.20;99.90;;;;;;4978398;28;20043;-50
2023/11/17 12:01:56;;;;;;;7.10;4.00;;;10.30;99.90;;;;;;4973862;28;20132;-51
2023/11/17 12:04:29;;;;;;;8.90;4.32;;;10.70;99.90;;;;;;4977597;28;20043;-50
2023/11/17 12:06:57;;;;;;;5.95;4.55;;;11.20;99.90;;;;;;4974124;28;20485;-51
2023/11/17 12:09:24;;;;;;;5.93;4.55;;;11.20;99.90;;;;;;4977710;28;20054;-48
2023/11/17 12:11:52;;;;;;;7.68;4.40;;;11.40;99.90;;;;;;4962010;28;20046;-48
2023/11/17 12:14:39;;;;;;;5.93;4.72;;;11.10;99.90;;;;;;4978113;28;20508;-49
2023/11/17 12:17:07;;;;;;;6.13;5.00;;;11.50;99.90;;;;;;4975110;28;20479;-47
2023/11/17 12:19:35;;;;;;;6.10;5.28;;;11.10;99.90;;;;;;4976586;28;20046;-45
2023/11/17 12:22:04;;;;;;;6.43;4.80;;;10.80;99.90;;;;;;4971861;28;20047;-49
2023/11/17 12:24:34;;;;;;;6.45;5.00;;;11.40;99.90;;;;;;4979737;28;20050;-52
2023/11/17 12:27:04;;;;;;;9.15;5.70;;;11.80;99.90;;;;;;4972980;28;20445;-54
2023/11/17 12:29:35;;;;;;;6.70;5.10;;;12.50;99.90;;;;;;4974414;28;20043;-47
2023/11/17 12:32:03;;;;;;;5.90;4.85;;;12.10;99.90;;;;;;4975035;28;20050;-52
2023/11/17 12:34:31;;;;;;;6.97;5.68;;;11.50;99.90;;;;;;4977770;28;20486;-51
2023/11/17 12:37:02;;;;;;;6.85;5.35;;;10.90;99.90;;;;;;4975086;28;20523;-48
2023/11/17 12:39:42;;;;;;;8.30;5.30;;;11.50;99.90;;;;;;4981784;28;20062;-48
2023/11/17 12:42:19;;;;;;;6.65;5.80;;;12.30;99.90;;;;;;4976170;28;20105;-45
2023/11/17 12:44:47;;;;;;;6.45;5.20;;;12.50;99.90;;;;;;4981180;28;20409;-49
2023/11/17 12:47:14;;;;;;;8.73;5.60;;;13.10;99.90;;;;;;4979296;28;20043;-54
2023/11/17 12:49:56;;;;;;;;;;;13.60;99.90;;;;;;4980185;28;20359;-57
2023/11/17 12:52:23;;;;;;;7.93;5.50;;;13.40;99.90;;;;;;4979167;28;20289;-48
2023/11/17 12:55:07;;;;;;;6.38;5.38;;;13.30;99.90;;;;;;4979499;28;20060;-51
2023/11/17 12:57:36;;;;;;;7.38;5.28;;;13.20;99.90;;;;;;4978003;28;20121;-45
2023/11/17 13:00:12;;;;;;;7.05;4.93;;;13.30;99.90;;;;;;4976822;28;20043;-48
2023/11/17 13:02:40;;;;;;;8.18;5.00;;;13.00;99.90;;;;;;4977333;28;20142;-50